Time;durP1;ratioP1;P1;durP2;ratioP2;P2;SDS_P1;SDS_P2;PMS_P1;PMS_P2;Temp;Humidity;BMP_temperature;BMP_pressure;BME280_temperature;BME280_humidity;BME280_pressure;Samples;Min_cycle;Max_cycle;Signal;HPM_P1;HPM_P2
2024/04/23 00:01:49;;;;;;;4.23;3.80;;;3.30;99.90;;;;;;5274062;27;20460;-49
2024/04/23 00:04:15;;;;;;;5.33;4.10;;;3.30;99.90;;;;;;5273746;27;20864;-54
2024/04/23 00:06:40;;;;;;;4.90;4.40;;;3.20;99.90;;;;;;5272573;27;20338;-52
2024/04/23 00:09:06;;;;;;;5.40;4.97;;;3.10;99.90;;;;;;5273226;27;20267;-60
2024/04/23 00:11:31;;;;;;;5.10;4.50;;;3.10;99.90;;;;;;5273479;27;20765;-57
2024/04/23 00:14:00;;;;;;;5.43;4.93;;;3.00;99.90;;;;;;5273886;27;20228;-50
2024/04/23 00:16:25;;;;;;;4.97;4.47;;;3.00;99.90;;;;;;5273366;27;20232;-49
2024/04/23 00:18:51;;;;;;;7.20;4.53;;;3.00;99.90;;;;;;5273601;27;20459;-51
2024/04/23 00:21:16;;;;;;;5.77;4.40;;;3.00;99.90;;;;;;5264902;27;20241;-51
2024/04/23 00:23:42;;;;;;;5.13;4.53;;;2.90;99.90;;;;;;5273479;27;20263;-55
2024/04/23 00:26:07;;;;;;;7.40;5.00;;;2.90;99.90;;;;;;5273185;27;20352;-49
2024/04/23 00:28:33;;;;;;;6.23;5.10;;;2.80;99.90;;;;;;5273469;27;20360;-49
2024/04/23 00:30:59;;;;;;;7.43;5.77;;;2.80;99.90;;;;;;5266237;27;20253;-49
2024/04/23 00:33:24;;;;;;;5.37;4.70;;;2.80;99.90;;;;;;5273147;27;20368;-56
2024/04/23 00:35:50;;;;;;;6.40;5.73;;;2.70;99.90;;;;;;5259298;27;20257;-55
2024/04/23 00:38:15;;;;;;;4.80;4.27;;;2.70;99.90;;;;;;5268890;27;20355;-59
2024/04/23 00:40:41;;;;;;;6.93;6.20;;;2.70;99.90;;;;;;5272642;27;20283;-59
2024/04/23 00:43:06;;;;;;;5.67;5.00;;;2.60;99.90;;;;;;5272152;27;20662;-58
2024/04/23 00:45:36;;;;;;;5.83;5.10;;;2.60;99.90;;;;;;5241236;27;20228;-58
2024/04/23 00:48:03;;;;;;;4.90;4.40;;;2.60;99.90;;;;;;5245445;27;20232;-59
2024/04/23 00:50:29;;;;;;;7.37;6.00;;;2.50;99.90;;;;;;5272450;27;20471;-58
2024/04/23 00:52:55;;;;;;;5.50;4.97;;;2.50;99.90;;;;;;5273438;27;20460;-59
2024/04/23 00:55:22;;;;;;;6.70;4.60;;;2.50;99.90;;;;;;5272842;27;20471;-58
2024/04/23 00:57:48;;;;;;;7.10;5.40;;;2.50;99.90;;;;;;5272159;27;20224;-59
2024/04/23 01:00:14;;;;;;;5.70;5.20;;;2.50;99.90;;;;;;5272626;27;20539;-60
2024/04/23 01:02:40;;;;;;;5.53;4.93;;;2.50;99.90;;;;;;5273133;27;20456;-59
2024/04/23 01:05:06;;;;;;;5.20;4.70;;;2.40;99.90;;;;;;5273069;27;20460;-59
2024/04/23 01:07:31;;;;;;;6.63;5.40;;;2.40;99.90;;;;;;5272828;27;20488;-61
2024/04/23 01:09:57;;;;;;;6.23;5.17;;;2.40;99.90;;;;;;5272627;27;20579;-58
2024/04/23 01:12:23;;;;;;;6.77;5.20;;;2.30;99.90;;;;;;5264202;27;20245;-60
2024/04/23 01:14:51;;;;;;;7.13;4.97;;;2.30;99.90;;;;;;5273051;27;20576;-60
2024/04/23 01:17:19;;;;;;;5.97;4.70;;;2.30;99.90;;;;;;5272511;27;20579;-58
2024/04/23 01:19:49;;;;;;;5.70;4.43;;;2.30;99.90;;;;;;5272771;27;21080;-59
2024/04/23 01:22:42;;;;;;;5.63;4.67;;;2.20;99.90;;;;;;5272452;27;20468;-59
2024/04/23 01:25:24;;;;;;;5.27;4.77;;;2.20;99.90;;;;;;5272792;27;21134;-57
2024/04/23 01:27:51;;;;;;;9.07;6.10;;;2.30;99.90;;;;;;5254220;27;20469;-56
2024/04/23 01:30:20;;;;;;;5.93;5.33;;;2.20;99.90;;;;;;5238226;27;20496;-61
2024/04/23 01:32:47;;;;;;;5.50;4.60;;;2.10;99.90;;;;;;5273032;27;20467;-60
2024/04/23 01:35:14;;;;;;;5.87;5.27;;;2.10;99.90;;;;;;5272269;27;20528;-61
2024/04/23 01:37:42;;;;;;;6.90;5.70;;;2.10;99.90;;;;;;5270745;27;20460;-58
2024/04/23 01:40:09;;;;;;;7.10;5.37;;;2.10;99.90;;;;;;5272227;27;20829;-60
2024/04/23 01:42:36;;;;;;;5.80;5.17;;;2.10;99.90;;;;;;5272168;27;20602;-60
2024/04/23 01:45:03;;;;;;;5.67;4.87;;;2.10;99.90;;;;;;5272481;27;20472;-60
2024/04/23 01:47:29;;;;;;;7.77;5.43;;;2.20;99.90;;;;;;5272514;27;20578;-60
2024/04/23 01:49:55;;;;;;;7.70;5.47;;;2.10;99.90;;;;;;5270957;27;20483;-57
2024/04/23 01:52:21;;;;;;;5.40;4.87;;;2.10;99.90;;;;;;5271611;27;20335;-58
2024/04/23 01:54:47;;;;;;;5.07;4.67;;;2.10;99.90;;;;;;5272175;27;20951;-59
2024/04/23 01:57:14;;;;;;;7.10;5.53;;;2.10;99.90;;;;;;5272201;27;20531;-58
2024/04/23 02:00:02;;;;;;;5.10;4.43;;;2.10;99.90;;;;;;5271511;27;20468;-58
2024/04/23 02:02:28;;;;;;;8.07;4.40;;;2.00;99.90;;;;;;5272138;27;20614;-61
2024/04/23 02:04:54;;;;;;;4.50;4.10;;;1.90;99.90;;;;;;5272244;27;21045;-60
2024/04/23 02:07:20;;;;;;;4.83;4.27;;;1.90;99.90;;;;;;5267222;27;20476;-58
2024/04/23 02:09:47;;;;;;;8.40;5.00;;;1.90;99.90;;;;;;5274378;27;20520;-58
2024/04/23 02:12:15;;;;;;;8.00;5.20;;;1.90;99.90;;;;;;5275485;27;20625;-60
2024/04/23 02:14:42;;;;;;;8.43;6.20;;;1.90;99.90;;;;;;5262628;27;20476;-59
2024/04/23 02:17:08;;;;;;;6.33;5.10;;;1.80;99.90;;;;;;5275067;27;20468;-59
2024/04/23 02:19:33;;;;;;;5.17;4.67;;;1.80;99.90;;;;;;5274974;27;20475;-59
2024/04/23 02:21:59;;;;;;;7.50;4.03;;;1.80;99.90;;;;;;5275346;27;20842;-56
2024/04/23 02:24:24;;;;;;;4.30;3.90;;;1.80;99.90;;;;;;5267576;27;20346;-59
2024/04/23 02:26:50;;;;;;;6.00;5.20;;;1.70;99.90;;;;;;5260859;27;20272;-58
2024/04/23 02:29:16;;;;;;;6.83;4.50;;;1.70;99.90;;;;;;5268183;27;20735;-60
2024/04/23 02:31:41;;;;;;;5.70;4.60;;;1.60;99.90;;;;;;5244502;27;20283;-59
2024/04/23 02:34:07;;;;;;;6.07;5.47;;;1.70;99.90;;;;;;5268847;27;20221;-59
2024/04/23 02:36:32;;;;;;;6.20;4.60;;;1.60;99.90;;;;;;5274518;27;20237;-58
2024/04/23 02:38:58;;;;;;;5.40;4.90;;;1.60;99.90;;;;;;5274838;27;20271;-58
2024/04/23 02:41:24;;;;;;;4.90;4.23;;;1.60;99.90;;;;;;5270872;27;20361;-60
2024/04/23 02:43:49;;;;;;;5.27;4.53;;;1.60;99.90;;;;;;5274904;27;20313;-60
2024/04/23 02:46:15;;;;;;;8.93;5.33;;;1.60;99.90;;;;;;5274430;27;20256;-60
2024/04/23 02:48:40;;;;;;;4.77;4.10;;;1.60;99.90;;;;;;5275274;27;20224;-57
2024/04/23 02:51:06;;;;;;;7.30;5.77;;;1.60;99.90;;;;;;5268311;27;20422;-59
2024/04/23 02:53:31;;;;;;;5.50;4.87;;;1.50;99.90;;;;;;5274023;27;20347;-56
2024/04/23 02:55:57;;;;;;;5.20;4.80;;;1.50;99.90;;;;;;5274871;27;20364;-59
2024/04/23 02:58:23;;;;;;;5.43;4.57;;;1.50;99.90;;;;;;5274708;27;20263;-60
2024/04/23 03:00:48;;;;;;;5.43;4.90;;;1.50;99.90;;;;;;5273689;27;20349;-58
2024/04/23 03:03:14;;;;;;;5.90;4.80;;;1.50;99.90;;;;;;5274727;27;20232;-59
2024/04/23 03:05:39;;;;;;;6.50;4.90;;;1.50;99.90;;;;;;5268950;27;20371;-58
2024/04/23 03:08:05;;;;;;;6.30;5.70;;;1.40;99.90;;;;;;5266276;27;20363;-59
2024/04/23 03:10:31;;;;;;;7.40;4.93;;;1.40;99.90;;;;;;5274045;27;20241;-54
2024/04/23 03:12:56;;;;;;;9.53;6.20;;;1.30;99.90;;;;;;5275111;27;20479;-57
2024/04/23 03:15:22;;;;;;;6.40;4.90;;;1.30;99.90;;;;;;5274567;27;20225;-60
2024/04/23 03:17:48;;;;;;;6.20;4.90;;;1.30;99.90;;;;;;5274357;27;20364;-61
2024/04/23 03:20:13;;;;;;;4.70;4.20;;;1.30;99.90;;;;;;5273405;27;20232;-59
2024/04/23 03:22:39;;;;;;;4.57;4.17;;;1.30;99.90;;;;;;5267633;27;20766;-57
2024/04/23 03:25:05;;;;;;;5.80;5.17;;;1.30;99.90;;;;;;5274781;27;20530;-59
2024/04/23 03:27:30;;;;;;;6.83;5.20;;;1.30;99.90;;;;;;5274167;27;20268;-58
2024/04/23 03:29:56;;;;;;;5.93;4.93;;;1.30;99.90;;;;;;5274364;27;20839;-59
2024/04/23 03:32:22;;;;;;;5.33;4.13;;;1.30;99.90;;;;;;5274287;27;20440;-60
2024/04/23 03:34:47;;;;;;;9.13;5.97;;;1.20;99.90;;;;;;5274756;27;20272;-59
2024/04/23 03:37:13;;;;;;;6.40;5.80;;;1.20;99.90;;;;;;5274267;27;20224;-61
2024/04/23 03:39:38;;;;;;;7.07;5.77;;;1.20;99.90;;;;;;5268805;27;20345;-60
2024/04/23 03:42:04;;;;;;;7.80;5.90;;;1.30;99.90;;;;;;5274266;27;20244;-60
2024/04/23 03:44:29;;;;;;;6.17;5.43;;;1.30;99.90;;;;;;5273697;27;20280;-61
2024/04/23 03:46:55;;;;;;;6.73;5.90;;;1.20;99.90;;;;;;5274201;27;20229;-59
2024/04/23 03:49:21;;;;;;;8.00;6.23;;;1.20;99.90;;;;;;5273501;27;20229;-60
2024/04/23 03:51:47;;;;;;;5.03;4.53;;;1.20;99.90;;;;;;5267641;27;20495;-60
2024/04/23 03:54:13;;;;;;;7.40;5.50;;;1.30;99.90;;;;;;5272817;27;20595;-58
2024/04/23 03:56:38;;;;;;;8.80;5.73;;;1.30;99.90;;;;;;5273203;27;20338;-58
2024/04/23 03:59:04;;;;;;;8.73;6.80;;;1.30;99.90;;;;;;5273493;27;20309;-58
2024/04/23 04:01:29;;;;;;;7.77;6.03;;;1.20;99.90;;;;;;5271961;27;20228;-59
2024/04/23 04:06:58;;;;;;;8.00;5.23;;;1.20;99.90;;;;;;5257408;27;20344;-58
2024/04/23 04:09:24;;;;;;;9.70;5.40;;;1.30;99.90;;;;;;5267422;27;20520;-57
2024/04/23 04:11:49;;;;;;;6.77;5.03;;;1.20;99.90;;;;;;5272649;27;20995;-59
2024/04/23 04:14:15;;;;;;;6.03;5.43;;;1.20;99.90;;;;;;5272471;27;20228;-59
2024/04/23 04:16:40;;;;;;;7.30;5.80;;;1.30;99.90;;;;;;5272035;27;20338;-58
2024/04/23 04:19:06;;;;;;;7.17;5.43;;;1.30;99.90;;;;;;5273602;27;20546;-59
2024/04/23 04:21:31;;;;;;;7.87;5.97;;;1.30;99.90;;;;;;5272853;27;20331;-61
2024/04/23 04:23:57;;;;;;;7.80;6.30;;;1.20;99.90;;;;;;5273262;27;20229;-61
2024/04/23 04:26:23;;;;;;;6.40;5.73;;;1.30;99.90;;;;;;5273647;27;20688;-58
2024/04/23 04:28:48;;;;;;;8.63;6.10;;;1.30;99.90;;;;;;5270904;27;20228;-58
2024/04/23 04:31:14;;;;;;;7.77;6.57;;;1.40;99.90;;;;;;5265909;27;20232;-59
2024/04/23 04:33:39;;;;;;;7.90;5.50;;;1.50;99.90;;;;;;5272605;27;20279;-59
2024/04/23 04:36:05;;;;;;;6.97;6.37;;;1.50;99.90;;;;;;5273653;27;20610;-58
2024/04/23 04:38:34;;;;;;;9.37;7.97;;;1.50;99.90;;;;;;5272359;27;20229;-57
2024/04/23 04:41:00;;;;;;;16.67;7.60;;;1.50;99.90;;;;;;5271568;27;20537;-59
2024/04/23 04:43:25;;;;;;;9.87;8.03;;;1.60;99.90;;;;;;5273343;27;20611;-59
2024/04/23 04:45:51;;;;;;;8.33;7.50;;;1.70;99.90;;;;;;5266970;27;20472;-60
2024/04/23 04:48:17;;;;;;;7.80;7.10;;;1.70;99.90;;;;;;5272075;27;20563;-59
2024/04/23 04:50:43;;;;;;;8.30;7.43;;;1.70;99.90;;;;;;5272124;27;20349;-58
2024/04/23 04:53:08;;;;;;;8.80;7.23;;;1.80;99.90;;;;;;5272061;27;20245;-59
2024/04/23 04:55:34;;;;;;;13.93;7.70;;;1.80;99.90;;;;;;5271318;27;20460;-58
2024/04/23 04:58:00;;;;;;;11.00;9.00;;;1.90;99.90;;;;;;5272926;27;20299;-59
2024/04/23 05:00:26;;;;;;;8.30;6.97;;;1.90;99.90;;;;;;5271981;27;20540;-58
2024/04/23 05:02:51;;;;;;;8.73;7.70;;;2.00;99.90;;;;;;5272584;27;20323;-59
2024/04/23 05:05:17;;;;;;;8.43;7.37;;;2.00;99.90;;;;;;5272509;27;20338;-59
2024/04/23 05:07:43;;;;;;;6.60;5.70;;;2.00;99.90;;;;;;5270552;27;20758;-58
2024/04/23 05:10:08;;;;;;;8.83;6.17;;;2.30;99.90;;;;;;5272306;27;20249;-61
2024/04/23 05:12:36;;;;;;;7.80;6.70;;;2.40;99.90;;;;;;5272947;27;20233;-57
2024/04/23 05:15:02;;;;;;;9.83;7.90;;;2.50;99.90;;;;;;5271968;27;20283;-58
2024/04/23 05:17:28;;;;;;;7.63;6.27;;;2.70;99.90;;;;;;5272360;27;20459;-58
2024/04/23 05:19:53;;;;;;;8.80;6.30;;;2.80;99.90;;;;;;5272702;27;20452;-59
2024/04/23 05:22:19;;;;;;;8.67;7.40;;;2.90;99.90;;;;;;5271925;27;20731;-59
2024/04/23 05:24:44;;;;;;;8.53;7.20;;;2.90;99.90;;;;;;5264191;27;20244;-59
2024/04/23 05:27:10;;;;;;;9.53;6.53;;;3.00;99.90;;;;;;5273065;27;20339;-58
2024/04/23 05:29:40;;;;;;;9.17;7.17;;;2.90;99.90;;;;;;5272192;27;20292;-59
2024/04/23 05:34:50;;;;;;;9.03;7.57;;;3.10;99.90;;;;;;5272496;27;20571;-58
2024/04/23 05:37:16;;;;;;;10.33;7.33;;;3.30;99.90;;;;;;5268009;27;20981;-59
2024/04/23 05:39:41;;;;;;;9.10;7.53;;;3.10;99.90;;;;;;5266262;27;20667;-59
2024/04/23 05:42:07;;;;;;;12.83;7.57;;;3.30;99.90;;;;;;5271818;27;20228;-60
2024/04/23 05:44:32;;;;;;;8.37;7.13;;;3.70;99.90;;;;;;5274486;27;20224;-59
2024/04/23 05:46:58;;;;;;;6.83;6.13;;;3.90;99.90;;;;;;5275406;27;20600;-59
2024/04/23 05:50:01;;;;;;;10.07;6.87;;;4.10;99.90;;;;;;5275740;27;20220;-57
2024/04/23 05:53:04;;;;;;;6.63;6.00;;;3.80;99.90;;;;;;5269697;27;20285;-58
2024/04/23 05:55:40;;;;;;;8.63;5.73;;;4.60;99.90;;;;;;5274320;27;21018;-60
2024/04/23 05:58:07;;;;;;;7.80;6.40;;;4.70;99.90;;;;;;5275078;27;20473;-60
2024/04/23 06:00:33;;;;;;;6.27;5.67;;;5.30;99.90;;;;;;5273606;27;20531;-60
2024/04/23 06:02:59;;;;;;;5.93;5.07;;;5.50;99.90;;;;;;5275009;27;20575;-59
2024/04/23 06:05:24;;;;;;;8.33;6.20;;;5.90;99.90;;;;;;5274842;27;20594;-59
2024/04/23 06:07:51;;;;;;;8.00;5.10;;;6.30;99.90;;;;;;5274659;27;20497;-60
2024/04/23 06:10:17;;;;;;;7.37;5.33;;;6.60;99.90;;;;;;5268850;27;20653;-59
2024/04/23 06:12:42;;;;;;;6.63;5.03;;;6.60;99.90;;;;;;5274218;27;20464;-57
2024/04/23 06:15:08;;;;;;;8.47;5.53;;;6.90;99.90;;;;;;5274907;27;20589;-57
2024/04/23 06:17:37;;;;;;;8.73;4.33;;;7.50;99.90;;;;;;5274886;27;20676;-56
2024/04/23 06:20:03;;;;;;;5.87;5.30;;;7.90;99.90;;;;;;5274229;27;20232;-59
2024/04/23 06:22:31;;;;;;;10.30;5.87;;;8.30;99.90;;;;;;5275097;27;20654;-59
2024/04/23 06:24:57;;;;;;;5.23;4.40;;;8.70;99.90;;;;;;5266808;27;20572;-60
2024/04/23 06:27:24;;;;;;;4.60;4.20;;;8.30;99.90;;;;;;5267047;27;20519;-60
2024/04/23 06:29:51;;;;;;;6.77;4.87;;;8.90;99.90;;;;;;5274342;27;20473;-60
2024/04/23 06:32:17;;;;;;;6.23;4.87;;;9.50;99.90;;;;;;5274256;27;20485;-60
2024/04/23 06:34:45;;;;;;;4.80;4.10;;;8.90;99.90;;;;;;5273822;27;20532;-57
2024/04/23 06:37:11;;;;;;;5.90;4.07;;;9.30;99.90;;;;;;5274417;27;20619;-59
2024/04/23 06:39:37;;;;;;;6.97;4.43;;;9.40;99.90;;;;;;5274030;27;20524;-65
2024/04/23 06:42:03;;;;;;;3.70;3.40;;;9.80;99.90;;;;;;5273737;27;20520;-60
2024/04/23 06:44:28;;;;;;;5.10;3.73;;;9.00;99.90;;;;;;5271429;27;20484;-67
2024/04/23 06:46:54;;;;;;;5.53;3.80;;;9.60;99.90;;;;;;5274178;27;20306;-63
2024/04/23 06:49:20;;;;;;;4.30;3.77;;;10.10;99.90;;;;;;5274191;27;20273;-61
2024/04/23 06:51:46;;;;;;;5.17;4.00;;;10.70;99.30;;;;;;5273062;27;20664;-60
2024/04/23 06:54:12;;;;;;;4.33;3.40;;;10.30;99.90;;;;;;5270708;27;20370;-60
2024/04/23 06:56:37;;;;;;;4.67;3.87;;;10.30;98.90;;;;;;5273291;27;20275;-59
2024/04/23 06:59:03;;;;;;;5.57;3.70;;;10.40;98.70;;;;;;5274277;27;20457;-62
2024/04/23 07:01:29;;;;;;;4.93;4.40;;;10.00;99.00;;;;;;5273870;27;20765;-55
2024/04/23 07:03:55;;;;;;;4.37;3.33;;;10.30;94.90;;;;;;5253455;27;20272;-53
2024/04/23 07:06:20;;;;;;;8.57;4.13;;;9.00;98.30;;;;;;5270783;27;20460;-57
2024/04/23 07:08:49;;;;;;;3.53;3.23;;;9.30;98.80;;;;;;5272952;27;20229;-58
2024/04/23 07:11:15;;;;;;;3.73;3.43;;;9.80;99.90;;;;;;5243594;27;20272;-53
2024/04/23 07:13:44;;;;;;;5.27;3.60;;;11.30;98.10;;;;;;5267874;27;20516;-59
2024/04/23 07:16:11;;;;;;;4.30;3.90;;;11.20;95.40;;;;;;5241004;27;20888;-55
2024/04/23 07:18:37;;;;;;;4.00;3.60;;;10.70;93.00;;;;;;5274176;27;20461;-57
2024/04/23 07:21:02;;;;;;;4.23;3.83;;;9.80;88.40;;;;;;5273798;27;20521;-59
2024/04/23 07:23:28;;;;;;;4.20;3.17;;;9.40;93.80;;;;;;5272993;27;20534;-60
2024/04/23 07:25:53;;;;;;;6.47;3.80;;;9.40;94.30;;;;;;5273905;27;20235;-55
2024/04/23 07:28:20;;;;;;;3.00;2.60;;;10.90;92.00;;;;;;5267408;27;20285;-55
2024/04/23 07:30:45;;;;;;;2.43;2.23;;;10.80;93.30;;;;;;5241724;27;20825;-55
2024/04/23 07:33:11;;;;;;;3.03;2.30;;;10.80;79.50;;;;;;5273263;27;20469;-58
2024/04/23 07:35:37;;;;;;;2.63;2.27;;;10.80;78.30;;;;;;5274004;27;20229;-57
2024/04/23 07:38:08;;;;;;;3.73;3.00;;;9.90;79.10;;;;;;5274069;27;20578;-54
2024/04/23 07:40:34;;;;;;;3.23;2.60;;;9.30;86.10;;;;;;5271785;27;20484;-59
2024/04/23 07:43:00;;;;;;;3.93;2.60;;;9.40;78.60;;;;;;5273692;27;20460;-56
2024/04/23 07:45:25;;;;;;;3.70;1.97;;;10.10;76.30;;;;;;5273749;27;20555;-54
2024/04/23 07:47:51;;;;;;;6.33;2.70;;;9.70;76.40;;;;;;5274884;27;20301;-58
2024/04/23 07:50:16;;;;;;;3.37;2.40;;;11.80;80.80;;;;;;5274310;27;20658;-59
2024/04/23 07:52:42;;;;;;;2.73;2.53;;;11.60;79.60;;;;;;5274360;27;20233;-55
2024/04/23 07:55:07;;;;;;;2.73;2.53;;;12.30;76.50;;;;;;5273471;27;20309;-56
2024/04/23 07:57:33;;;;;;;2.80;2.47;;;13.10;69.20;;;;;;5274236;27;20242;-54
2024/04/23 07:59:59;;;;;;;2.70;2.50;;;11.50;64.10;;;;;;5273338;27;20238;-58
2024/04/23 08:02:25;;;;;;;4.30;2.30;;;11.60;65.70;;;;;;5273174;27;20243;-56
2024/04/23 08:04:51;;;;;;;2.63;2.43;;;10.90;63.40;;;;;;5273490;27;20372;-56
2024/04/23 08:07:17;;;;;;;2.93;2.30;;;12.20;65.90;;;;;;5273054;27;20469;-60
2024/04/23 08:09:43;;;;;;;3.57;2.83;;;12.20;61.90;;;;;;5273317;27;20716;-60
2024/04/23 08:12:09;;;;;;;2.37;2.17;;;11.80;67.00;;;;;;5269184;27;20477;-59
2024/04/23 08:14:34;;;;;;;2.63;2.43;;;12.30;65.50;;;;;;5270005;27;20785;-56
2024/04/23 08:17:00;;;;;;;2.90;2.33;;;12.70;66.60;;;;;;5273683;27;20227;-57
2024/04/23 08:19:25;;;;;;;2.90;2.60;;;13.20;61.00;;;;;;5273877;27;20676;-56
2024/04/23 08:21:51;;;;;;;2.80;2.57;;;12.00;65.60;;;;;;5272654;27;20711;-58
2024/04/23 08:24:16;;;;;;;3.77;2.83;;;12.00;63.20;;;;;;5271059;27;20367;-56
2024/04/23 08:26:42;;;;;;;2.93;2.67;;;12.70;60.10;;;;;;5272797;27;20615;-64
2024/04/23 08:29:07;;;;;;;3.03;2.73;;;12.90;62.10;;;;;;5271581;27;20278;-64
2024/04/23 08:31:33;;;;;;;4.47;3.03;;;13.50;63.40;;;;;;5273200;27;20237;-55
2024/04/23 08:33:59;;;;;;;2.90;2.70;;;14.50;58.50;;;;;;5259261;27;20251;-63
2024/04/23 08:36:25;;;;;;;2.90;2.60;;;14.10;56.60;;;;;;5272953;27;20670;-57
2024/04/23 08:38:51;;;;;;;3.17;2.77;;;13.50;53.80;;;;;;5273351;27;20472;-61
2024/04/23 08:41:26;;;;;;;2.80;2.47;;;12.30;59.00;;;;;;5272825;27;20523;-61
2024/04/23 08:44:12;;;;;;;3.10;2.53;;;13.00;59.80;;;;;;5268872;27;20620;-60
2024/04/23 08:46:40;;;;;;;4.13;3.37;;;12.30;60.80;;;;;;5266929;27;20484;-59
2024/04/23 08:49:07;;;;;;;3.40;3.10;;;12.30;59.40;;;;;;5272789;27;20467;-61
2024/04/23 08:51:34;;;;;;;3.50;3.17;;;12.20;56.40;;;;;;5272379;27;20807;-60
2024/04/23 08:54:01;;;;;;;3.40;2.73;;;11.20;58.50;;;;;;5273459;27;20607;-61
2024/04/23 08:56:30;;;;;;;3.20;2.80;;;10.90;59.80;;;;;;5251453;27;20549;-59
2024/04/23 08:58:56;;;;;;;2.70;2.47;;;11.10;60.00;;;;;;5266598;27;20537;-59
2024/04/23 09:01:29;;;;;;;2.90;2.70;;;11.80;56.40;;;;;;5262400;27;20592;-57
2024/04/23 09:03:56;;;;;;;2.93;2.73;;;13.40;52.50;;;;;;5270022;27;20766;-59
2024/04/23 09:06:26;;;;;;;4.77;3.07;;;12.50;53.50;;;;;;5270457;27;20459;-59
2024/04/23 09:08:53;;;;;;;3.70;3.20;;;11.50;58.70;;;;;;5271058;27;20671;-60
2024/04/23 09:11:19;;;;;;;2.90;2.70;;;12.00;59.40;;;;;;5264122;27;20966;-59
2024/04/23 09:13:44;;;;;;;3.10;2.90;;;13.00;52.80;;;;;;5269154;27;20461;-59
2024/04/23 09:16:10;;;;;;;2.87;2.63;;;12.80;54.90;;;;;;5270389;27;20930;-62
2024/04/23 09:18:36;;;;;;;2.60;2.40;;;12.00;53.30;;;;;;5269267;27;20228;-59
2024/04/23 09:21:02;;;;;;;4.47;3.10;;;13.60;53.80;;;;;;5258180;27;20467;-59
2024/04/23 09:23:28;;;;;;;3.03;2.83;;;12.50;50.40;;;;;;5270515;27;20967;-59
2024/04/23 09:25:58;;;;;;;2.73;2.53;;;12.70;52.10;;;;;;5269997;27;20582;-60
2024/04/23 09:28:25;;;;;;;2.53;2.33;;;12.70;50.50;;;;;;5270870;27;20829;-59
2024/04/23 09:30:51;;;;;;;5.07;2.50;;;12.40;47.40;;;;;;5270622;27;20530;-60
2024/04/23 09:33:23;;;;;;;3.20;2.40;;;12.50;54.70;;;;;;5270854;27;20853;-61
2024/04/23 09:36:05;;;;;;;2.47;2.37;;;13.20;52.40;;;;;;5269347;27;20518;-60
2024/04/23 09:38:35;;;;;;;2.50;2.30;;;14.00;49.60;;;;;;5263328;27;20882;-59
2024/04/23 09:41:02;;;;;;;4.63;2.60;;;14.80;49.50;;;;;;5266041;27;20525;-60
2024/04/23 09:43:29;;;;;;;3.27;2.37;;;14.50;46.10;;;;;;5263413;27;20894;-60
2024/04/23 09:45:54;;;;;;;3.90;2.87;;;12.30;46.20;;;;;;5268793;27;20477;-60
2024/04/23 09:48:34;;;;;;;2.53;2.33;;;12.50;47.00;;;;;;5270729;27;20475;-60
2024/04/23 09:51:04;;;;;;;2.97;2.77;;;11.90;47.80;;;;;;5267975;27;20276;-60
2024/04/23 09:53:34;;;;;;;3.10;2.53;;;12.50;48.60;;;;;;5259092;27;20522;-60
2024/04/23 09:56:02;;;;;;;4.23;2.73;;;12.00;47.50;;;;;;5268382;27;20833;-60
2024/04/23 09:58:34;;;;;;;2.80;2.57;;;11.70;46.00;;;;;;5265905;27;20468;-60
2024/04/23 10:01:00;;;;;;;2.93;2.70;;;12.30;46.70;;;;;;5265181;27;20476;-60
2024/04/23 10:03:28;;;;;;;4.40;2.50;;;12.70;48.80;;;;;;5270280;27;20530;-60
2024/04/23 10:06:02;;;;;;;3.40;3.10;;;12.70;44.00;;;;;;5268252;27;20467;-59
2024/04/23 10:08:34;;;;;;;3.40;2.80;;;11.70;46.30;;;;;;5269673;27;20719;-60
2024/04/23 10:11:01;;;;;;;4.60;2.80;;;12.60;46.70;;;;;;5268459;27;20472;-58
2024/04/23 10:13:44;;;;;;;4.30;2.93;;;12.00;45.90;;;;;;5267216;27;20625;-59
2024/04/23 10:16:34;;;;;;;4.87;3.03;;;10.60;48.10;;;;;;5257013;27;20607;-58
2024/04/23 10:19:02;;;;;;;3.30;2.87;;;11.30;49.70;;;;;;5267955;27;20464;-59
2024/04/23 10:21:37;;;;;;;4.23;3.13;;;12.00;46.40;;;;;;5262629;27;20464;-59
2024/04/23 10:24:10;;;;;;;2.90;2.57;;;12.30;47.90;;;;;;5267574;27;20666;-60
2024/04/23 10:26:44;;;;;;;2.70;2.50;;;11.90;48.00;;;;;;5261671;27;20460;-60
2024/04/23 10:29:12;;;;;;;2.73;2.47;;;11.00;45.40;;;;;;5255513;27;20568;-60
2024/04/23 10:31:38;;;;;;;3.83;3.13;;;11.10;48.50;;;;;;5270438;27;20471;-61
2024/04/23 10:34:05;;;;;;;3.40;2.63;;;10.90;46.90;;;;;;5271190;27;20464;-59
2024/04/23 10:36:35;;;;;;;2.50;2.30;;;11.40;47.70;;;;;;5270721;27;20487;-60
2024/04/23 10:39:02;;;;;;;4.50;2.90;;;11.90;44.10;;;;;;5271152;27;20672;-59
2024/04/23 10:41:29;;;;;;;3.50;3.00;;;11.70;43.40;;;;;;5273846;27;20476;-59
2024/04/23 10:43:55;;;;;;;4.83;2.60;;;11.20;45.90;;;;;;5269807;27;20530;-59
2024/04/23 10:46:21;;;;;;;3.90;2.83;;;11.50;43.90;;;;;;5270960;27;20497;-60
2024/04/23 10:48:54;;;;;;;4.40;2.73;;;11.70;44.10;;;;;;5272102;27;20468;-58
2024/04/23 10:51:21;;;;;;;4.40;3.17;;;10.80;44.90;;;;;;5272115;27;20237;-60
2024/04/23 10:53:47;;;;;;;3.13;2.83;;;11.40;44.70;;;;;;5269776;27;20471;-59
2024/04/23 10:56:26;;;;;;;4.60;2.50;;;11.90;44.90;;;;;;5272243;27;20612;-59
2024/04/23 10:59:08;;;;;;;4.70;3.33;;;11.30;47.30;;;;;;5271845;27;20359;-59
2024/04/23 11:01:35;;;;;;;3.60;3.30;;;11.20;47.90;;;;;;5242605;27;20974;-58
2024/04/23 11:04:05;;;;;;;3.30;3.10;;;11.10;46.40;;;;;;5269033;27;21116;-54
2024/04/23 11:06:38;;;;;;;2.70;2.50;;;11.10;49.60;;;;;;5271954;27;21028;-51
2024/04/23 11:09:13;;;;;;;2.97;2.57;;;11.50;47.60;;;;;;5271878;27;20464;-53
2024/04/23 11:11:39;;;;;;;4.00;3.07;;;11.70;43.90;;;;;;5270045;27;20997;-54
2024/04/23 11:14:04;;;;;;;3.10;2.80;;;11.70;42.50;;;;;;5271116;27;20510;-53
2024/04/23 11:16:30;;;;;;;3.47;3.17;;;11.90;43.80;;;;;;5273941;27;20276;-52
2024/04/23 11:18:58;;;;;;;3.60;3.30;;;11.50;44.60;;;;;;5271566;27;20346;-57
2024/04/23 11:21:25;;;;;;;2.60;2.40;;;11.50;44.50;;;;;;5273633;27;20397;-54
2024/04/23 11:23:52;;;;;;;2.80;2.60;;;11.10;41.30;;;;;;5268753;27;20471;-58
2024/04/23 11:26:21;;;;;;;2.77;2.17;;;11.60;43.40;;;;;;5271476;27;20471;-54
2024/04/23 11:28:48;;;;;;;2.67;2.37;;;12.10;42.00;;;;;;5271157;27;20909;-57
2024/04/23 11:31:13;;;;;;;3.27;2.93;;;12.00;42.30;;;;;;5271463;27;20476;-57
2024/04/23 11:33:40;;;;;;;4.67;2.70;;;11.30;41.80;;;;;;5269630;27;20530;-55
2024/04/23 11:36:06;;;;;;;3.63;3.27;;;10.70;45.30;;;;;;5269917;27;20339;-56
2024/04/23 11:38:42;;;;;;;3.90;2.20;;;11.00;45.80;;;;;;5269843;27;20515;-54
2024/04/23 11:41:14;;;;;;;6.90;2.17;;;10.60;45.70;;;;;;5269380;27;20550;-56
2024/04/23 11:43:46;;;;;;;2.50;2.30;;;10.90;45.50;;;;;;5268951;27;20527;-53
2024/04/23 11:46:15;;;;;;;3.20;2.90;;;11.20;42.70;;;;;;5257713;27;20647;-57
2024/04/23 11:48:42;;;;;;;2.53;2.30;;;11.70;42.80;;;;;;5271167;27;20544;-54
2024/04/23 11:51:08;;;;;;;4.30;2.70;;;12.10;40.90;;;;;;5272986;27;21248;-52
2024/04/23 11:53:34;;;;;;;2.70;2.47;;;12.60;41.00;;;;;;5270307;27;20564;-53
2024/04/23 11:56:00;;;;;;;2.70;2.50;;;11.70;40.10;;;;;;5270315;27;20930;-54
2024/04/23 11:58:26;;;;;;;2.90;2.70;;;11.90;40.80;;;;;;5269657;27;20456;-58
2024/04/23 12:00:52;;;;;;;3.43;2.33;;;11.50;40.10;;;;;;5273497;27;20585;-60
2024/04/23 12:03:18;;;;;;;2.57;2.37;;;11.00;42.90;;;;;;5270825;27;20691;-59
2024/04/23 12:05:46;;;;;;;2.77;2.50;;;10.50;42.10;;;;;;5267533;27;20857;-57
2024/04/23 12:08:12;;;;;;;3.37;2.63;;;11.20;42.60;;;;;;5256679;27;20225;-60
2024/04/23 12:10:38;;;;;;;2.80;2.60;;;11.40;42.10;;;;;;5269606;27;20535;-61
2024/04/23 12:13:03;;;;;;;2.80;2.60;;;11.70;42.50;;;;;;5270367;27;20985;-61
2024/04/23 12:15:34;;;;;;;2.27;2.13;;;11.10;41.40;;;;;;5270350;27;20224;-57
2024/04/23 12:18:00;;;;;;;2.60;2.40;;;10.40;41.10;;;;;;5272403;27;20807;-60
2024/04/23 12:20:27;;;;;;;3.80;2.53;;;10.60;41.70;;;;;;5259414;27;20526;-58
2024/04/23 12:22:52;;;;;;;3.43;2.93;;;10.70;42.70;;;;;;5270535;27;20471;-58
2024/04/23 12:25:20;;;;;;;3.10;2.80;;;10.90;42.90;;;;;;5273138;27;20933;-59
2024/04/23 12:27:46;;;;;;;3.37;2.87;;;11.10;42.70;;;;;;5266659;27;20244;-59
2024/04/23 12:30:14;;;;;;;2.53;2.33;;;11.30;43.20;;;;;;5256156;27;20577;-61
2024/04/23 12:32:41;;;;;;;3.23;2.93;;;10.60;43.30;;;;;;5259782;27;21079;-61
2024/04/23 12:35:07;;;;;;;3.27;2.97;;;10.80;43.00;;;;;;5268041;27;20496;-61
2024/04/23 12:37:33;;;;;;;3.17;2.83;;;10.60;44.60;;;;;;5263948;27;20519;-59
2024/04/23 12:40:04;;;;;;;2.67;2.47;;;10.30;42.10;;;;;;5265981;27;20461;-60
2024/04/23 12:42:31;;;;;;;3.43;3.20;;;10.00;43.90;;;;;;5269025;27;20330;-59
2024/04/23 12:44:56;;;;;;;2.60;2.40;;;10.60;43.30;;;;;;5263388;27;20461;-61
2024/04/23 12:47:22;;;;;;;2.30;2.13;;;10.90;42.60;;;;;;5272450;27;21386;-59
2024/04/23 12:49:49;;;;;;;2.80;2.60;;;10.40;44.00;;;;;;5264216;27;20695;-56
2024/04/23 12:52:15;;;;;;;2.30;2.10;;;10.90;44.70;;;;;;5267122;27;20501;-60
2024/04/23 12:54:41;;;;;;;6.20;2.83;;;11.00;45.40;;;;;;5269001;27;20674;-59
2024/04/23 12:57:08;;;;;;;8.53;2.97;;;11.00;44.30;;;;;;5258986;27;20543;-58
2024/04/23 12:59:37;;;;;;;3.00;2.63;;;11.30;42.80;;;;;;5268122;27;20698;-58